Time;durP1;ratioP1;P1;durP2;ratioP2;P2;SDS_P1;SDS_P2;PMS_P1;PMS_P2;Temp;Humidity;BMP_temperature;BMP_pressure;BME280_temperature;BME280_humidity;BME280_pressure;Samples;Min_cycle;Max_cycle;Signal;HPM_P1;HPM_P2
2023/02/17 00:04:28;;;;;;;1999.90;999.90;;;11.00;99.90;;;;;;6741396;88;20224;-78
2023/02/17 00:14:29;;;;;;;1999.90;999.90;;;11.20;99.90;;;;;;6737833;88;20189;-77
2023/02/17 00:24:35;;;;;;;1999.90;999.90;;;11.10;99.90;;;;;;6743000;88;20262;-77
2023/02/17 00:34:36;;;;;;;1999.90;999.90;;;11.20;99.90;;;;;;6753401;88;20483;-78
2023/02/17 00:44:37;;;;;;;1999.90;999.90;;;11.30;99.90;;;;;;6751189;88;20371;-79
2023/02/17 00:54:39;;;;;;;1999.90;999.90;;;11.30;99.90;;;;;;6734493;88;20181;-76
2023/02/17 01:04:40;;;;;;;1999.90;999.90;;;11.30;99.90;;;;;;6734048;88;20274;-76
2023/02/17 01:14:40;;;;;;;1999.90;999.90;;;11.30;99.90;;;;;;6735756;88;20889;-76
2023/02/17 01:24:41;;;;;;;1999.90;999.90;;;11.30;99.90;;;;;;6737313;88;20284;-77
2023/02/17 01:34:41;;;;;;;1999.90;999.90;;;11.40;99.90;;;;;;6738097;88;20314;-77
2023/02/17 01:45:28;;;;;;;1999.90;999.90;;;11.40;99.90;;;;;;6736682;88;20206;-77
2023/02/17 01:55:32;;;;;;;1999.90;999.90;;;11.40;99.90;;;;;;6740654;88;20212;-75
2023/02/17 02:05:33;;;;;;;1999.90;999.90;;;11.40;99.90;;;;;;6734163;88;20315;-76
2023/02/17 02:15:44;;;;;;;1999.90;999.90;;;11.40;99.90;;;;;;6736905;88;20343;-76
2023/02/17 02:26:13;;;;;;;1999.90;999.90;;;11.50;99.90;;;;;;6735387;88;20292;-76
2023/02/17 02:36:42;;;;;;;1999.90;999.90;;;11.50;99.90;;;;;;6736673;88;20207;-77
2023/02/17 02:46:42;;;;;;;1999.90;999.90;;;11.50;99.90;;;;;;6737842;88;20212;-77
2023/02/17 02:56:54;;;;;;;1999.90;999.90;;;11.60;99.90;;;;;;6737666;88;20205;-78
2023/02/17 03:07:00;;;;;;;1999.90;999.90;;;11.70;99.90;;;;;;6732369;88;20185;-77
2023/02/17 03:17:00;;;;;;;1999.90;999.90;;;11.60;99.90;;;;;;6733601;88;20270;-79
2023/02/17 03:27:02;;;;;;;1999.90;999.90;;;11.80;99.90;;;;;;6733124;88;20192;-78
2023/02/17 03:37:02;;;;;;;1999.90;999.90;;;11.70;99.90;;;;;;6736000;88;20185;-76
2023/02/17 03:47:03;;;;;;;1999.90;999.90;;;11.70;99.90;;;;;;6735093;88;20202;-76
2023/02/17 03:57:03;;;;;;;1999.90;999.90;;;11.60;99.90;;;;;;6735154;88;20522;-78
2023/02/17 04:07:04;;;;;;;1999.90;999.90;;;11.70;99.90;;;;;;6740810;88;20213;-78
2023/02/17 04:17:04;;;;;;;1999.90;999.90;;;11.80;99.90;;;;;;6740745;88;20696;-78
2023/02/17 04:27:05;;;;;;;1999.90;999.90;;;11.70;99.90;;;;;;6739435;88;20279;-78
2023/02/17 04:37:06;;;;;;;1999.90;999.90;;;11.70;99.90;;;;;;6741484;88;21459;-77
2023/02/17 04:47:06;;;;;;;1999.90;999.90;;;11.70;99.90;;;;;;6740761;88;20178;-77
2023/02/17 04:57:07;;;;;;;1999.90;999.90;;;11.80;99.90;;;;;;6750846;88;20241;-78
2023/02/17 05:07:07;;;;;;;1999.90;999.90;;;11.70;99.90;;;;;;6743133;88;20339;-77
2023/02/17 05:17:08;;;;;;;1999.90;999.90;;;11.70;99.90;;;;;;6733977;88;20210;-77
2023/02/17 05:27:08;;;;;;;1999.90;999.90;;;11.70;99.90;;;;;;6733712;88;20289;-77
2023/02/17 05:37:09;;;;;;;1999.90;999.90;;;11.70;99.90;;;;;;6729835;88;20218;-77
2023/02/17 05:47:10;;;;;;;1999.90;999.90;;;11.60;99.90;;;;;;6732953;88;20204;-77
2023/02/17 05:57:10;;;;;;;1999.90;999.90;;;11.70;99.90;;;;;;6730216;88;20283;-77
2023/02/17 06:07:11;;;;;;;1999.90;999.90;;;11.50;99.90;;;;;;6730428;88;20197;-77
2023/02/17 06:17:11;;;;;;;1999.90;999.90;;;11.40;99.90;;;;;;6733468;88;20211;-77
2023/02/17 06:27:12;;;;;;;1999.90;999.90;;;11.60;99.90;;;;;;6733986;88;20177;-77
2023/02/17 06:37:12;;;;;;;1999.90;999.90;;;11.80;99.90;;;;;;6735706;88;20188;-76
2023/02/17 06:47:13;;;;;;;1999.90;999.90;;;11.90;99.90;;;;;;6730421;88;20207;-77
2023/02/17 06:57:13;;;;;;;1999.90;999.90;;;11.90;99.90;;;;;;6733325;88;20231;-78
2023/02/17 07:07:14;;;;;;;1999.90;999.90;;;11.90;99.90;;;;;;6732928;88;20204;-78
2023/02/17 07:17:14;;;;;;;1999.90;999.90;;;12.00;99.90;;;;;;6738487;88;20190;-77
2023/02/17 07:27:15;;;;;;;1999.90;999.90;;;12.10;99.90;;;;;;6736492;88;20222;-78
2023/02/17 07:37:15;;;;;;;1999.90;999.90;;;12.00;99.90;;;;;;6734705;88;20209;-77
2023/02/17 07:47:16;;;;;;;1999.90;999.90;;;12.20;99.90;;;;;;6736067;88;20580;-78
2023/02/17 07:57:17;;;;;;;1999.90;999.90;;;12.30;99.90;;;;;;6741653;88;20213;-78
2023/02/17 08:07:18;;;;;;;1999.90;999.90;;;12.40;99.90;;;;;;6737250;88;20230;-78
2023/02/17 08:17:18;;;;;;;1999.90;999.90;;;12.30;99.90;;;;;;6739811;88;20202;-78
2023/02/17 08:27:19;;;;;;;1999.90;999.90;;;12.60;99.90;;;;;;6740552;88;20214;-78
2023/02/17 08:37:20;;;;;;;1999.90;999.90;;;12.80;99.90;;;;;;6738201;88;20212;-77
2023/02/17 08:47:21;;;;;;;1999.90;999.90;;;13.10;99.90;;;;;;6735413;88;20606;-77
2023/02/17 08:57:21;;;;;;;1999.90;999.90;;;13.30;99.90;;;;;;6734502;88;20218;-76
2023/02/17 09:07:22;;;;;;;1999.90;999.90;;;13.60;99.90;;;;;;6729415;88;20197;-76
2023/02/17 09:17:22;;;;;;;1999.90;999.90;;;13.70;99.90;;;;;;6741885;88;20188;-79
2023/02/17 09:27:23;;;;;;;1999.90;999.90;;;13.70;99.90;;;;;;6746549;88;21055;-78
2023/02/17 09:37:23;;;;;;;1999.90;999.90;;;14.10;99.90;;;;;;6744396;88;20243;-77
2023/02/17 09:47:37;;;;;;;1999.90;999.90;;;14.20;99.90;;;;;;6745360;88;20233;-77
2023/02/17 09:57:45;;;;;;;1999.90;999.90;;;14.40;99.90;;;;;;6744895;88;20315;-78
2023/02/17 10:07:51;;;;;;;1999.90;999.90;;;15.00;99.90;;;;;;6745395;88;20206;-78
2023/02/17 10:18:18;;;;;;;1999.90;999.90;;;15.40;99.90;;;;;;6748576;88;20237;-77
2023/02/17 10:28:41;;;;;;;1999.90;999.90;;;15.60;99.90;;;;;;6743247;88;20680;-78
2023/02/17 10:39:07;;;;;;;1999.90;999.90;;;16.40;99.90;;;;;;6744112;88;20656;-78
2023/02/17 10:49:21;;;;;;;1999.90;999.90;;;16.60;99.90;;;;;;6741500;88;20241;-78
2023/02/17 10:59:37;;;;;;;1999.90;999.90;;;17.10;99.90;;;;;;6746616;88;20227;-79
2023/02/17 11:09:44;;;;;;;1999.90;999.90;;;17.70;99.90;;;;;;6746059;88;20213;-78
2023/02/17 11:20:12;;;;;;;1999.90;999.90;;;18.10;99.90;;;;;;6746620;88;20514;-79
2023/02/17 11:30:14;;;;;;;1999.90;999.90;;;18.30;99.90;;;;;;6753466;88;20182;-78
2023/02/17 11:40:28;;;;;;;1999.90;999.90;;;17.70;99.90;;;;;;6745093;88;20205;-78
2023/02/17 11:50:33;;;;;;;1999.90;999.90;;;17.90;99.90;;;;;;6742034;88;20208;-80
2023/02/17 12:00:54;;;;;;;1999.90;999.90;;;17.60;99.90;;;;;;6737107;88;20197;-78
2023/02/17 12:11:07;;;;;;;1999.90;999.90;;;17.50;99.90;;;;;;6741972;88;20177;-78
2023/02/17 12:21:15;;;;;;;1999.90;999.90;;;17.40;99.90;;;;;;6744004;88;20316;-78
2023/02/17 12:31:26;;;;;;;1999.90;999.90;;;17.70;99.90;;;;;;6743297;88;20234;-78
2023/02/17 12:41:35;;;;;;;1999.90;999.90;;;17.50;99.90;;;;;;6725605;88;20201;-78
2023/02/17 12:51:52;;;;;;;1999.90;999.90;;;17.50;99.90;;;;;;6724873;88;20226;-79
2023/02/17 13:02:08;;;;;;;1999.90;999.90;;;18.10;99.90;;;;;;6734894;88;20358;-78
2023/02/17 13:12:23;;;;;;;1999.90;999.90;;;18.90;99.90;;;;;;6733048;88;20218;-78
2023/02/17 13:22:24;;;;;;;1999.90;999.90;;;20.00;99.90;;;;;;6736211;88;20669;-76
2023/02/17 13:32:33;;;;;;;1999.90;999.90;;;19.90;99.90;;;;;;6735327;88;20219;-78
2023/02/17 13:42:37;;;;;;;1999.90;999.90;;;20.00;99.90;;;;;;6732507;88;20173;-78
2023/02/17 13:52:42;;;;;;;1999.90;999.90;;;19.80;99.90;;;;;;6753266;88;20717;-79
2023/02/17 14:03:25;;;;;;;1999.90;999.90;;;19.40;99.90;;;;;;6744581;88;20203;-77
2023/02/17 14:13:26;;;;;;;1999.90;999.90;;;20.20;99.90;;;;;;6733786;88;20481;-77
2023/02/17 14:23:26;;;;;;;1999.90;999.90;;;19.60;99.90;;;;;;6728785;88;20189;-78
2023/02/17 14:33:27;;;;;;;1999.90;999.90;;;19.80;99.90;;;;;;6737488;88;20196;-77
2023/02/17 14:43:28;;;;;;;1999.90;999.90;;;19.20;99.90;;;;;;6736110;88;20201;-78
2023/02/17 14:53:32;;;;;;;1999.90;999.90;;;18.30;99.90;;;;;;6729644;88;20365;-76
2023/02/17 15:03:32;;;;;;;1999.90;999.90;;;17.90;99.90;;;;;;6747467;88;20259;-77
2023/02/17 15:13:33;;;;;;;1999.90;999.90;;;17.70;99.90;;;;;;6754369;88;20189;-78
2023/02/17 15:23:34;;;;;;;1999.90;999.90;;;17.50;99.90;;;;;;6743577;88;20617;-78
2023/02/17 15:33:34;;;;;;;1999.90;999.90;;;17.30;99.90;;;;;;6742464;88;20323;-79
2023/02/17 15:43:35;;;;;;;1999.90;999.90;;;17.00;99.90;;;;;;6740938;88;20194;-78
2023/02/17 15:53:35;;;;;;;1999.90;999.90;;;16.60;99.90;;;;;;6741714;88;20200;-78
2023/02/17 16:03:36;;;;;;;1999.90;999.90;;;16.50;99.90;;;;;;6737574;88;20208;-78
2023/02/17 16:13:39;;;;;;;1999.90;999.90;;;16.20;99.90;;;;;;6723715;88;20242;-77
2023/02/17 16:23:40;;;;;;;1999.90;999.90;;;15.80;99.90;;;;;;6736786;88;20715;-77
2023/02/17 16:33:41;;;;;;;1999.90;999.90;;;15.60;99.90;;;;;;6741675;88;20223;-76
2023/02/17 16:43:41;;;;;;;1999.90;999.90;;;15.30;99.90;;;;;;6730344;88;20818;-76
2023/02/17 16:53:42;;;;;;;1999.90;999.90;;;14.90;99.90;;;;;;6732600;88;20260;-76
2023/02/17 17:03:43;;;;;;;1999.90;999.90;;;14.70;99.90;;;;;;6731755;88;20230;-78
2023/02/17 17:13:44;;;;;;;1999.90;999.90;;;14.30;99.90;;;;;;6731887;88;20217;-77
2023/02/17 17:23:45;;;;;;;1999.90;999.90;;;13.80;99.90;;;;;;6730708;88;20177;-78
2023/02/17 17:33:47;;;;;;;1999.90;999.90;;;13.40;99.90;;;;;;6731063;88;20277;-76
2023/02/17 17:43:49;;;;;;;1999.90;999.90;;;12.70;99.90;;;;;;6730231;88;20283;-76
2023/02/17 17:53:50;;;;;;;1999.90;999.90;;;12.20;99.90;;;;;;6726626;88;20329;-76
2023/02/17 18:03:51;;;;;;;1999.90;999.90;;;12.20;99.90;;;;;;6730164;88;20206;-78
2023/02/17 18:13:54;;;;;;;1999.90;999.90;;;12.20;99.90;;;;;;6745786;88;20197;-77
2023/02/17 18:23:54;;;;;;;1999.90;999.90;;;12.20;99.90;;;;;;6751930;88;20210;-78
2023/02/17 18:33:55;;;;;;;1999.90;999.90;;;12.20;99.90;;;;;;6733233;88;20188;-75
2023/02/17 18:43:58;;;;;;;1999.90;999.90;;;12.30;99.90;;;;;;6733655;88;20628;-78
2023/02/17 18:53:59;;;;;;;1999.90;999.90;;;12.30;99.90;;;;;;6733567;88;20236;-77
2023/02/17 19:04:00;;;;;;;1999.90;999.90;;;12.30;99.90;;;;;;6731469;88;20352;-76
2023/02/17 19:14:01;;;;;;;1999.90;999.90;;;12.30;99.90;;;;;;6735116;88;20192;-76
2023/02/17 19:24:02;;;;;;;1999.90;999.90;;;12.40;99.90;;;;;;6732272;88;20193;-78
2023/02/17 19:34:03;;;;;;;1999.90;999.90;;;12.30;99.90;;;;;;6734579;88;20198;-77
2023/02/17 19:44:03;;;;;;;1999.90;999.90;;;12.30;99.90;;;;;;6732406;88;20215;-77
2023/02/17 19:54:04;;;;;;;1999.90;999.90;;;12.30;99.90;;;;;;6733895;88;20626;-77
2023/02/17 20:04:05;;;;;;;1999.90;999.90;;;12.20;99.90;;;;;;6731098;88;20267;-77
2023/02/17 20:14:07;;;;;;;1999.90;999.90;;;12.20;99.90;;;;;;6731567;88;20267;-76
2023/02/17 20:24:07;;;;;;;1999.90;999.90;;;12.20;99.90;;;;;;6733532;88;20628;-77
2023/02/17 20:34:32;;;;;;;1999.90;999.90;;;12.30;99.90;;;;;;6730946;88;20230;-76
2023/02/17 20:44:34;;;;;;;1999.90;999.90;;;12.20;99.90;;;;;;6732444;88;20199;-76
2023/02/17 20:54:34;;;;;;;1999.90;999.90;;;12.20;99.90;;;;;;6730247;88;20246;-76
2023/02/17 21:04:35;;;;;;;1999.90;999.90;;;12.20;99.90;;;;;;6731908;88;20660;-77
2023/02/17 21:14:35;;;;;;;1999.90;999.90;;;12.10;99.90;;;;;;6733029;88;20260;-77
2023/02/17 21:24:36;;;;;;;1999.90;999.90;;;12.20;99.90;;;;;;6734657;88;20257;-77
2023/02/17 21:34:37;;;;;;;1999.90;999.90;;;12.10;99.90;;;;;;6735135;88;20649;-77
2023/02/17 21:44:50;;;;;;;1999.90;999.90;;;12.10;99.90;;;;;;6738603;88;20220;-77
2023/02/17 21:54:54;;;;;;;1999.90;999.90;;;12.00;99.90;;;;;;6736070;88;20660;-76
2023/02/17 22:04:55;;;;;;;1999.90;999.90;;;11.90;99.90;;;;;;6736550;88;20609;-80
2023/02/17 22:14:56;;;;;;;1999.90;999.90;;;11.90;99.90;;;;;;6736099;88;20204;-76
2023/02/17 22:24:56;;;;;;;1999.90;999.90;;;11.90;99.90;;;;;;6737312;88;20203;-76
2023/02/17 22:34:57;;;;;;;1999.90;999.90;;;11.90;99.90;;;;;;6746614;88;20197;-77
2023/02/17 22:44:58;;;;;;;1999.90;999.90;;;12.00;99.90;;;;;;6756426;88;20717;-77
2023/02/17 22:54:58;;;;;;;1999.90;999.90;;;11.90;99.90;;;;;;6740448;88;20189;-77
2023/02/17 23:04:59;;;;;;;1999.90;999.90;;;11.80;99.90;;;;;;6735885;88;20240;-76
2023/02/17 23:14:59;;;;;;;1999.90;999.90;;;11.80;99.90;;;;;;6717985;88;20216;-76
2023/02/17 23:25:00;;;;;;;1999.90;999.90;;;11.70;99.90;;;;;;6716697;88;20224;-77
2023/02/17 23:35:01;;;;;;;1999.90;999.90;;;11.70;99.90;;;;;;6718275;88;20226;-76
2023/02/17 23:45:03;;;;;;;1999.90;999.90;;;11.60;99.90;;;;;;6717408;88;20714;-77
2023/02/17 23:55:04;;;;;;;1999.90;999.90;;;11.60;99.90;;;;;;6717413;88;20211;-77
